sensor_id;sensor_type;location;lat;lon;timestamp;pressure;altitude;pressure_sealevel;temperature;humidity
18323;BME280;9287;49.456;11.064;2023-04-15T00:01:05;97154.00;;;6.81;100.00
18323;BME280;9287;49.456;11.064;2023-04-15T00:03:34;97153.22;;;6.81;100.00
18323;BME280;9287;49.456;11.064;2023-04-15T00:06:02;97148.56;;;6.81;100.00
18323;BME280;9287;49.456;11.064;2023-04-15T00:08:30;97143.13;;;6.81;100.00
18323;BME280;9287;49.456;11.064;2023-04-15T00:10:58;97144.72;;;6.82;100.00
18323;BME280;9287;49.456;11.064;2023-04-15T00:13:28;97142.44;;;6.84;100.00
18323;BME280;9287;49.456;11.064;2023-04-15T00:15:56;97144.72;;;6.82;100.00
18323;BME280;9287;49.456;11.064;2023-04-15T00:18:24;97153.66;;;6.83;100.00
18323;BME280;9287;49.456;11.064;2023-04-15T00:20:53;97153.31;;;6.84;100.00
18323;BME280;9287;49.456;11.064;2023-04-15T00:23:21;97147.88;;;6.84;100.00
18323;BME280;9287;49.456;11.064;2023-04-15T00:25:48;97139.75;;;6.84;100.00
18323;BME280;9287;49.456;11.064;2023-04-15T00:28:16;97143.94;;;6.82;100.00
18323;BME280;9287;49.456;11.064;2023-04-15T00:30:44;97134.31;;;6.84;100.00
18323;BME280;9287;49.456;11.064;2023-04-15T00:33:13;97146.31;;;6.83;100.00
18323;BME280;9287;49.456;11.064;2023-04-15T00:35:41;97139.56;;;6.93;100.00
18323;BME280;9287;49.456;11.064;2023-04-15T00:38:11;97128.09;;;6.99;100.00
18323;BME280;9287;49.456;11.064;2023-04-15T00:40:39;97126.16;;;6.84;100.00
18323;BME280;9287;49.456;11.064;2023-04-15T00:43:07;97129.78;;;6.88;100.00
18323;BME280;9287;49.456;11.064;2023-04-15T00:45:34;97132.28;;;6.81;100.00
18323;BME280;9287;49.456;11.064;2023-04-15T00:48:03;97125.28;;;6.80;100.00
18323;BME280;9287;49.456;11.064;2023-04-15T00:50:32;97121.63;;;6.88;100.00
18323;BME280;9287;49.456;11.064;2023-04-15T00:53:00;97121.53;;;6.85;100.00
18323;BME280;9287;49.456;11.064;2023-04-15T00:55:29;97120.94;;;6.91;100.00
18323;BME280;9287;49.456;11.064;2023-04-15T00:57:57;97118.47;;;6.86;100.00
18323;BME280;9287;49.456;11.064;2023-04-15T01:00:24;97113.75;;;6.83;100.00
18323;BME280;9287;49.456;11.064;2023-04-15T01:02:52;97116.19;;;6.88;100.00
18323;BME280;9287;49.456;11.064;2023-04-15T01:05:20;97110.34;;;6.86;100.00
18323;BME280;9287;49.456;11.064;2023-04-15T01:07:49;97112.16;;;6.82;100.00
18323;BME280;9287;49.456;11.064;2023-04-15T01:10:16;97111.28;;;6.78;100.00
18323;BME280;9287;49.456;11.064;2023-04-15T01:12:46;97116.91;;;6.85;100.00
18323;BME280;9287;49.456;11.064;2023-04-15T01:15:14;97111.72;;;6.80;100.00
18323;BME280;9287;49.456;11.064;2023-04-15T01:17:42;97109.88;;;6.84;100.00
18323;BME280;9287;49.456;11.064;2023-04-15T01:20:09;97110.13;;;6.79;100.00
18323;BME280;9287;49.456;11.064;2023-04-15T01:22:37;97106.63;;;6.79;100.00
18323;BME280;9287;49.456;11.064;2023-04-15T01:25:09;97110.59;;;6.81;100.00
18323;BME280;9287;49.456;11.064;2023-04-15T01:27:40;97106.97;;;6.77;100.00
18323;BME280;9287;49.456;11.064;2023-04-15T01:30:09;97103.84;;;6.75;100.00
18323;BME280;9287;49.456;11.064;2023-04-15T01:32:37;97101.56;;;6.77;100.00
18323;BME280;9287;49.456;11.064;2023-04-15T01:35:05;97096.56;;;6.79;100.00
18323;BME280;9287;49.456;11.064;2023-04-15T01:37:34;97098.69;;;6.70;100.00
18323;BME280;9287;49.456;11.064;2023-04-15T01:40:03;97100.94;;;6.68;100.00
18323;BME280;9287;49.456;11.064;2023-04-15T01:42:31;97098.56;;;6.67;100.00
18323;BME280;9287;49.456;11.064;2023-04-15T01:45:00;97090.78;;;6.65;100.00
18323;BME280;9287;49.456;11.064;2023-04-15T01:47:28;97096.66;;;6.67;100.00
18323;BME280;9287;49.456;11.064;2023-04-15T01:49:56;97097.09;;;6.69;100.00
18323;BME280;9287;49.456;11.064;2023-04-15T01:52:23;97096.66;;;6.67;100.00
18323;BME280;9287;49.456;11.064;2023-04-15T01:54:51;97098.69;;;6.70;100.00
18323;BME280;9287;49.456;11.064;2023-04-15T01:57:19;97095.53;;;6.68;100.00
18323;BME280;9287;49.456;11.064;2023-04-15T01:59:47;97088.25;;;6.72;100.00
18323;BME280;9287;49.456;11.064;2023-04-15T02:02:16;97090.09;;;6.68;100.00
18323;BME280;9287;49.456;11.064;2023-04-15T02:04:44;97083.88;;;6.68;100.00
18323;BME280;9287;49.456;11.064;2023-04-15T02:07:12;97082.41;;;6.70;100.00
18323;BME280;9287;49.456;11.064;2023-04-15T02:09:39;97081.25;;;6.71;100.00
18323;BME280;9287;49.456;11.064;2023-04-15T02:12:08;97082.16;;;6.75;100.00
18323;BME280;9287;49.456;11.064;2023-04-15T02:14:36;97088.63;;;6.71;100.00
18323;BME280;9287;49.456;11.064;2023-04-15T02:17:04;97078.56;;;6.71;100.00
18323;BME280;9287;49.456;11.064;2023-04-15T02:19:35;97083.97;;;6.71;100.00
18323;BME280;9287;49.456;11.064;2023-04-15T02:22:02;97084.66;;;6.68;100.00
18323;BME280;9287;49.456;11.064;2023-04-15T02:24:30;97092.00;;;6.68;100.00
18323;BME280;9287;49.456;11.064;2023-04-15T02:26:58;97088.50;;;6.67;100.00
18323;BME280;9287;49.456;11.064;2023-04-15T02:29:26;97094.81;;;6.71;100.00
18323;BME280;9287;49.456;11.064;2023-04-15T02:31:54;97087.81;;;6.70;100.00
18323;BME280;9287;49.456;11.064;2023-04-15T02:34:22;97094.63;;;6.64;100.00
18323;BME280;9287;49.456;11.064;2023-04-15T02:36:51;97090.09;;;6.68;100.00
18323;BME280;9287;49.456;11.064;2023-04-15T02:39:22;97094.72;;;6.68;100.00
18323;BME280;9287;49.456;11.064;2023-04-15T02:41:50;97089.22;;;6.64;100.00
18323;BME280;9287;49.456;11.064;2023-04-15T02:44:18;97087.38;;;6.68;100.00
18323;BME280;9287;49.456;11.064;2023-04-15T02:46:45;97082.41;;;6.70;100.00
18323;BME280;9287;49.456;11.064;2023-04-15T02:49:16;97084.66;;;6.68;100.00
18323;BME280;9287;49.456;11.064;2023-04-15T02:51:45;97091.22;;;6.67;100.00
18323;BME280;9287;49.456;11.064;2023-04-15T02:54:16;97088.84;;;6.66;100.00
18323;BME280;9287;49.456;11.064;2023-04-15T02:56:44;97086.94;;;6.66;100.00
18323;BME280;9287;49.456;11.064;2023-04-15T02:59:12;97092.38;;;6.66;100.00
18323;BME280;9287;49.456;11.064;2023-04-15T03:01:39;97090.34;;;6.63;100.00
18323;BME280;9287;49.456;11.064;2023-04-15T03:04:07;97091.91;;;6.64;100.00
18323;BME280;9287;49.456;11.064;2023-04-15T03:06:35;97097.09;;;6.69;100.00
18323;BME280;9287;49.456;11.064;2023-04-15T03:09:03;97089.56;;;6.62;100.00
18323;BME280;9287;49.456;11.064;2023-04-15T03:11:32;97086.84;;;6.62;100.00
18323;BME280;9287;49.456;11.064;2023-04-15T03:14:01;97084.66;;;6.68;100.00
18323;BME280;9287;49.456;11.064;2023-04-15T03:16:29;97084.88;;;6.75;100.00
18323;BME280;9287;49.456;11.064;2023-04-15T03:18:57;97085.91;;;6.86;100.00
18323;BME280;9287;49.456;11.064;2023-04-15T03:21:25;97087.28;;;6.80;100.00
18323;BME280;9287;49.456;11.064;2023-04-15T03:23:55;97090.44;;;6.82;100.00
18323;BME280;9287;49.456;11.064;2023-04-15T03:26:26;97090.44;;;6.82;100.00
18323;BME280;9287;49.456;11.064;2023-04-15T03:28:55;97086.59;;;6.83;100.00
18323;BME280;9287;49.456;11.064;2023-04-15T03:31:23;97078.03;;;6.81;100.00
18323;BME280;9287;49.456;11.064;2023-04-15T03:33:51;97077.13;;;6.77;100.00
18323;BME280;9287;49.456;11.064;2023-04-15T03:36:19;97079.44;;;6.75;100.00
18323;BME280;9287;49.456;11.064;2023-04-15T03:38:46;97083.28;;;6.74;100.00
18323;BME280;9287;49.456;11.064;2023-04-15T03:41:14;97082.75;;;6.69;100.00
18323;BME280;9287;49.456;11.064;2023-04-15T03:43:42;97087.81;;;6.70;100.00
18323;BME280;9287;49.456;11.064;2023-04-15T03:46:12;97082.88;;;6.60;100.00
18323;BME280;9287;49.456;11.064;2023-04-15T03:48:39;97083.09;;;6.67;100.00
18323;BME280;9287;49.456;11.064;2023-04-15T03:51:07;97080.13;;;6.72;100.00
18323;BME280;9287;49.456;11.064;2023-04-15T03:53:35;97080.13;;;6.72;100.00
18323;BME280;9287;49.456;11.064;2023-04-15T03:56:03;97077.22;;;6.65;100.00
18323;BME280;9287;49.456;11.064;2023-04-15T03:58:31;97077.66;;;6.67;100.00
18323;BME280;9287;49.456;11.064;2023-04-15T04:00:58;97079.25;;;6.68;100.00
18323;BME280;9287;49.456;11.064;2023-04-15T04:03:27;97083.09;;;6.67;100.00
18323;BME280;9287;49.456;11.064;2023-04-15T04:05:55;97085.72;;;6.79;100.00
18323;BME280;9287;49.456;11.064;2023-04-15T04:08:23;97092.72;;;6.80;100.00
18323;BME280;9287;49.456;11.064;2023-04-15T04:10:52;97082.22;;;6.79;100.00
18323;BME280;9287;49.456;11.064;2023-04-15T04:13:20;97079.84;;;6.77;100.00
18323;BME280;9287;49.456;11.064;2023-04-15T04:15:48;97095.72;;;6.75;100.00
18323;BME280;9287;49.456;11.064;2023-04-15T04:18:16;97084.66;;;6.68;100.00
18323;BME280;9287;49.456;11.064;2023-04-15T04:20:45;97090.63;;;6.74;100.00
18323;BME280;9287;49.456;11.064;2023-04-15T04:23:13;97083.09;;;6.67;100.00
18323;BME280;9287;49.456;11.064;2023-04-15T04:25:40;97086.25;;;6.69;100.00
18323;BME280;9287;49.456;11.064;2023-04-15T04:28:09;97090.88;;;6.69;100.00
18323;BME280;9287;49.456;11.064;2023-04-15T04:30:37;97086.41;;;6.76;100.00
18323;BME280;9287;49.456;11.064;2023-04-15T04:33:05;97097.25;;;6.76;100.00
18323;BME280;9287;49.456;11.064;2023-04-15T04:35:33;97089.56;;;6.78;100.00
18323;BME280;9287;49.456;11.064;2023-04-15T04:38:04;97096.56;;;6.79;100.00
18323;BME280;9287;49.456;11.064;2023-04-15T04:40:32;97098.34;;;6.87;100.00
18323;BME280;9287;49.456;11.064;2023-04-15T04:42:59;97099.03;;;6.84;100.00
18323;BME280;9287;49.456;11.064;2023-04-15T04:45:27;97099.22;;;6.91;100.00
18323;BME280;9287;49.456;11.064;2023-04-15T04:47:55;97101.75;;;6.84;100.00
18323;BME280;9287;49.456;11.064;2023-04-15T04:50:23;97102.19;;;6.86;100.00
18323;BME280;9287;49.456;11.064;2023-04-15T04:52:50;97097.47;;;6.83;100.00
18323;BME280;9287;49.456;11.064;2023-04-15T04:55:20;97101.31;;;6.82;100.00
18323;BME280;9287;49.456;11.064;2023-04-15T04:57:47;97100.81;;;6.92;100.00
18323;BME280;9287;49.456;11.064;2023-04-15T05:00:15;97106.22;;;6.92;100.00
18323;BME280;9287;49.456;11.064;2023-04-15T05:02:43;97104.81;;;6.98;100.00
18323;BME280;9287;49.456;11.064;2023-04-15T05:05:11;97098.00;;;7.05;100.00
18323;BME280;9287;49.456;11.064;2023-04-15T05:07:39;97088.03;;;7.09;100.00
18323;BME280;9287;49.456;11.064;2023-04-15T05:10:08;97098.25;;;6.99;100.00
18323;BME280;9287;49.456;11.064;2023-04-15T05:12:37;97092.38;;;6.97;100.00
18323;BME280;9287;49.456;11.064;2023-04-15T05:15:06;97100.97;;;6.99;100.00
18323;BME280;9287;49.456;11.064;2023-04-15T05:17:34;97100.97;;;6.99;100.00
18323;BME280;9287;49.456;11.064;2023-04-15T05:20:02;97100.19;;;6.99;100.00
18323;BME280;9287;49.456;11.064;2023-04-15T05:22:30;97105.44;;;7.08;100.00
18323;BME280;9287;49.456;11.064;2023-04-15T05:24:58;97109.00;;;7.12;100.00
18323;BME280;9287;49.456;11.064;2023-04-15T05:27:26;97105.88;;;7.10;100.00
18323;BME280;9287;49.456;11.064;2023-04-15T05:29:55;97114.44;;;7.12;100.00
18323;BME280;9287;49.456;11.064;2023-04-15T05:32:23;97106.03;;;7.17;100.00
18323;BME280;9287;49.456;11.064;2023-04-15T05:34:50;97102.19;;;7.18;100.00
18323;BME280;9287;49.456;11.064;2023-04-15T05:37:18;97105.69;;;7.18;100.00
18323;BME280;9287;49.456;11.064;2023-04-15T05:39:47;97107.97;;;7.32;100.00
18323;BME280;9287;49.456;11.064;2023-04-15T05:42:15;97111.13;;;7.34;100.00
18323;BME280;9287;49.456;11.064;2023-04-15T05:44:43;97117.31;;;7.34;100.00
18323;BME280;9287;49.456;11.064;2023-04-15T05:47:12;97119.59;;;7.32;100.00
18323;BME280;9287;49.456;11.064;2023-04-15T05:49:40;97125.56;;;7.38;100.00
18323;BME280;9287;49.456;11.064;2023-04-15T05:52:08;97118.78;;;7.48;100.00
18323;BME280;9287;49.456;11.064;2023-04-15T05:54:35;97123.00;;;7.45;100.00
18323;BME280;9287;49.456;11.064;2023-04-15T05:57:04;97120.56;;;7.40;100.00
18323;BME280;9287;49.456;11.064;2023-04-15T05:59:32;97127.59;;;7.41;100.00
18323;BME280;9287;49.456;11.064;2023-04-15T06:02:00;97118.44;;;7.49;100.00
18323;BME280;9287;49.456;11.064;2023-04-15T06:04:29;97123.44;;;7.47;100.00
18323;BME280;9287;49.456;11.064;2023-04-15T06:06:58;97127.47;;;7.53;100.00
18323;BME280;9287;49.456;11.064;2023-04-15T06:09:26;97118.44;;;7.49;100.00
18323;BME280;9287;49.456;11.064;2023-04-15T06:11:54;97127.91;;;7.55;100.00
18323;BME280;9287;49.456;11.064;2023-04-15T06:14:22;97125.91;;;7.52;100.00
18323;BME280;9287;49.456;11.064;2023-04-15T06:16:50;97123.88;;;7.49;100.00
18323;BME280;9287;49.456;11.064;2023-04-15T06:19:18;97129.41;;;7.53;100.00
18323;BME280;9287;49.456;11.064;2023-04-15T06:21:47;97123.19;;;7.52;100.00
18323;BME280;9287;49.456;11.064;2023-04-15T06:24:17;97129.31;;;7.49;100.00
18323;BME280;9287;49.456;11.064;2023-04-15T06:26:45;97130.00;;;7.46;100.00
18323;BME280;9287;49.456;11.064;2023-04-15T06:29:13;97121.78;;;7.58;100.00
18323;BME280;9287;49.456;11.064;2023-04-15T06:31:40;97125.34;;;7.62;100.00
18323;BME280;9287;49.456;11.064;2023-04-15T06:34:08;97127.09;;;7.71;100.00
18323;BME280;9287;49.456;11.064;2023-04-15T06:36:36;97132.88;;;7.69;100.00
18323;BME280;9287;49.456;11.064;2023-04-15T06:39:05;97130.69;;;7.75;100.00
18323;BME280;9287;49.456;11.064;2023-04-15T06:41:33;97140.41;;;7.76;100.00
18323;BME280;9287;49.456;11.064;2023-04-15T06:44:01;97140.91;;;7.81;100.00
18323;BME280;9287;49.456;11.064;2023-04-15T06:46:29;97129.41;;;7.88;100.00
18323;BME280;9287;49.456;11.064;2023-04-15T06:48:57;97134.16;;;7.91;100.00
18323;BME280;9287;49.456;11.064;2023-04-15T06:51:25;97136.34;;;7.85;100.00
18323;BME280;9287;49.456;11.064;2023-04-15T06:53:53;97134.16;;;7.91;100.00
18323;BME280;9287;49.456;11.064;2023-04-15T06:56:22;97128.53;;;7.84;100.00
18323;BME280;9287;49.456;11.064;2023-04-15T06:58:49;97131.00;;;7.89;100.00
18323;BME280;9287;49.456;11.064;2023-04-15T07:01:17;97131.00;;;7.89;100.00
18323;BME280;9287;49.456;11.064;2023-04-15T07:03:45;97136.59;;;7.96;100.00
18323;BME280;9287;49.456;11.064;2023-04-15T07:06:13;97140.50;;;7.98;100.00
18323;BME280;9287;49.456;11.064;2023-04-15T07:08:40;97133.66;;;8.04;100.00
18323;BME280;9287;49.456;11.064;2023-04-15T07:11:08;97129.19;;;8.12;100.00
18323;BME280;9287;49.456;11.064;2023-04-15T07:13:37;97132.47;;;8.21;100.00
18323;BME280;9287;49.456;11.064;2023-04-15T07:16:05;97126.84;;;8.14;100.00
18323;BME280;9287;49.456;11.064;2023-04-15T07:18:32;97138.47;;;8.11;100.00
18323;BME280;9287;49.456;11.064;2023-04-15T07:21:00;97133.47;;;8.32;100.00
18323;BME280;9287;49.456;11.064;2023-04-15T07:23:28;97139.78;;;8.36;100.00
18323;BME280;9287;49.456;11.064;2023-04-15T07:25:56;97137.06;;;8.56;100.00
18323;BME280;9287;49.456;11.064;2023-04-15T07:28:23;97128.03;;;8.71;100.00
18323;BME280;9287;49.456;11.064;2023-04-15T07:30:52;97139.78;;;8.75;100.00
18323;BME280;9287;49.456;11.064;2023-04-15T07:33:20;97137.25;;;8.86;100.00
18323;BME280;9287;49.456;11.064;2023-04-15T07:35:48;97137.03;;;8.94;100.00
18323;BME280;9287;49.456;11.064;2023-04-15T07:38:16;97140.28;;;9.03;100.00
18323;BME280;9287;49.456;11.064;2023-04-15T07:40:43;97134.13;;;9.06;100.00
18323;BME280;9287;49.456;11.064;2023-04-15T07:43:11;97143.25;;;8.95;100.00
18323;BME280;9287;49.456;11.064;2023-04-15T07:45:39;97136.16;;;8.90;100.00
18323;BME280;9287;49.456;11.064;2023-04-15T07:48:08;97148.41;;;9.00;100.00
18323;BME280;9287;49.456;11.064;2023-04-15T07:50:36;97149.56;;;8.99;100.00
18323;BME280;9287;49.456;11.064;2023-04-15T07:53:04;97146.19;;;8.86;100.00
18323;BME280;9287;49.456;11.064;2023-04-15T07:55:32;97139.78;;;8.75;100.00
18323;BME280;9287;49.456;11.064;2023-04-15T07:58:00;97144.94;;;8.80;100.00
18323;BME280;9287;49.456;11.064;2023-04-15T08:00:27;97143.34;;;8.79;100.00
18323;BME280;9287;49.456;11.064;2023-04-15T08:02:56;97148.03;;;9.01;100.00
18323;BME280;9287;49.456;11.064;2023-04-15T08:05:26;97137.97;;;9.05;100.00
18323;BME280;9287;49.456;11.064;2023-04-15T08:07:54;97146.66;;;9.11;100.00
18323;BME280;9287;49.456;11.064;2023-04-15T08:10:22;97140.59;;;8.98;100.00
18323;BME280;9287;49.456;11.064;2023-04-15T08:12:49;97147.66;;;8.80;100.00
18323;BME280;9287;49.456;11.064;2023-04-15T08:15:19;97154.69;;;8.62;100.00
18323;BME280;9287;49.456;11.064;2023-04-15T08:17:47;97147.25;;;8.59;100.00
18323;BME280;9287;49.456;11.064;2023-04-15T08:20:16;97150.16;;;8.50;100.00
18323;BME280;9287;49.456;11.064;2023-04-15T08:22:45;97152.41;;;8.45;100.00
18323;BME280;9287;49.456;11.064;2023-04-15T08:25:17;97154.94;;;8.18;100.00
18323;BME280;9287;49.456;11.064;2023-04-15T08:27:45;97157.50;;;8.11;100.00
18323;BME280;9287;49.456;11.064;2023-04-15T08:30:13;97164.09;;;8.10;100.00
18323;BME280;9287;49.456;11.064;2023-04-15T08:32:41;97170.78;;;7.97;100.00
18323;BME280;9287;49.456;11.064;2023-04-15T08:35:09;97175.34;;;7.93;100.00
18323;BME280;9287;49.456;11.064;2023-04-15T08:37:37;97170.94;;;8.04;100.00
18323;BME280;9287;49.456;11.064;2023-04-15T08:40:07;97176.09;;;8.09;100.00
18323;BME280;9287;49.456;11.064;2023-04-15T08:42:37;97177.25;;;8.08;100.00
18323;BME280;9287;49.456;11.064;2023-04-15T08:45:10;97174.66;;;7.96;100.00
18323;BME280;9287;49.456;11.064;2023-04-15T08:47:39;97175.50;;;8.00;100.00
18323;BME280;9287;49.456;11.064;2023-04-15T08:50:08;97170.22;;;8.07;100.00
18323;BME280;9287;49.456;11.064;2023-04-15T08:52:37;97176.06;;;7.90;100.00
18323;BME280;9287;49.456;11.064;2023-04-15T08:55:08;97179.03;;;7.85;100.00
18323;BME280;9287;49.456;11.064;2023-04-15T08:57:37;97181.66;;;7.81;100.00
18323;BME280;9287;49.456;11.064;2023-04-15T09:00:06;97182.03;;;7.80;100.00
18323;BME280;9287;49.456;11.064;2023-04-15T09:02:34;97182.47;;;7.82;100.00
18323;BME280;9287;49.456;11.064;2023-04-15T09:05:03;97179.22;;;7.92;100.00
18323;BME280;9287;49.456;11.064;2023-04-15T09:07:32;97183.38;;;8.05;100.00
18323;BME280;9287;49.456;11.064;2023-04-15T09:10:01;97175.94;;;8.02;100.00
18323;BME280;9287;49.456;11.064;2023-04-15T09:12:33;97178.81;;;8.09;100.00
18323;BME280;9287;49.456;11.064;2023-04-15T09:15:01;97180.53;;;8.17;100.00
18323;BME280;9287;49.456;11.064;2023-04-15T09:17:32;97188.50;;;8.26;100.00
18323;BME280;9287;49.456;11.064;2023-04-15T09:20:10;97185.44;;;8.27;100.00
18323;BME280;9287;49.456;11.064;2023-04-15T09:22:39;97196.56;;;8.38;100.00
18323;BME280;9287;49.456;11.064;2023-04-15T09:25:25;97197.06;;;8.44;100.00
18323;BME280;9287;49.456;11.064;2023-04-15T09:27:56;97192.91;;;8.50;100.00
18323;BME280;9287;49.456;11.064;2023-04-15T09:30:24;97200.16;;;8.61;100.00
18323;BME280;9287;49.456;11.064;2023-04-15T09:32:55;97195.22;;;8.48;100.00
18323;BME280;9287;49.456;11.064;2023-04-15T09:35:24;97206.66;;;8.37;100.00
18323;BME280;9287;49.456;11.064;2023-04-15T09:38:01;97205.94;;;8.41;100.00
18323;BME280;9287;49.456;11.064;2023-04-15T09:40:33;97208.03;;;8.31;100.00
18323;BME280;9287;49.456;11.064;2023-04-15T09:43:04;97205.88;;;8.37;100.00
18323;BME280;9287;49.456;11.064;2023-04-15T09:45:32;97209.31;;;8.18;100.00
18323;BME280;9287;49.456;11.064;2023-04-15T09:48:15;97206.72;;;8.06;100.00
18323;BME280;9287;49.456;11.064;2023-04-15T09:50:43;97208.38;;;8.11;100.00
18323;BME280;9287;49.456;11.064;2023-04-15T09:53:15;97207.69;;;8.14;100.00
18323;BME280;9287;49.456;11.064;2023-04-15T09:55:45;97215.72;;;8.26;100.00
18323;BME280;9287;49.456;11.064;2023-04-15T09:58:21;97215.84;;;8.14;100.00
18323;BME280;9287;49.456;11.064;2023-04-15T10:00:50;97211.59;;;8.16;100.00
18323;BME280;9287;49.456;11.064;2023-04-15T10:03:20;97221.13;;;8.42;100.00
18323;BME280;9287;49.456;11.064;2023-04-15T10:05:50;97218.47;;;8.45;100.00
18323;BME280;9287;49.456;11.064;2023-04-15T10:08:19;97223.69;;;8.34;100.00
18323;BME280;9287;49.456;11.064;2023-04-15T10:10:47;97218.25;;;8.34;100.00
18323;BME280;9287;49.456;11.064;2023-04-15T10:13:18;97224.06;;;8.17;100.00
18323;BME280;9287;49.456;11.064;2023-04-15T10:15:50;97220.88;;;7.96;100.00
18323;BME280;9287;49.456;11.064;2023-04-15T10:18:19;97228.72;;;8.01;100.00
18323;BME280;9287;49.456;11.064;2023-04-15T10:20:48;97238.47;;;8.02;100.00
18323;BME280;9287;49.456;11.064;2023-04-15T10:23:16;97233.03;;;8.02;100.00
18323;BME280;9287;49.456;11.064;2023-04-15T10:25:46;97233.47;;;8.04;100.00
18323;BME280;9287;49.456;11.064;2023-04-15T10:28:15;97234.59;;;8.03;100.00
18323;BME280;9287;49.456;11.064;2023-04-15T10:30:42;97230.75;;;8.04;100.00
18323;BME280;9287;49.456;11.064;2023-04-15T10:33:12;97233.72;;;7.99;100.00
18323;BME280;9287;49.456;11.064;2023-04-15T10:35:41;97242.19;;;7.94;100.00
18323;BME280;9287;49.456;11.064;2023-04-15T10:38:32;97235.16;;;7.93;100.00
18323;BME280;9287;49.456;11.064;2023-04-15T10:41:17;97246.19;;;8.00;100.00
18323;BME280;9287;49.456;11.064;2023-04-15T10:43:48;97234.97;;;8.01;100.00
18323;BME280;9287;49.456;11.064;2023-04-15T10:46:35;97232.81;;;7.76;100.00
18323;BME280;9287;49.456;11.064;2023-04-15T10:49:09;97237.28;;;7.52;100.00
18323;BME280;9287;49.456;11.064;2023-04-15T10:51:38;97227.44;;;7.63;100.00
18323;BME280;9287;49.456;11.064;2023-04-15T10:54:11;97231.31;;;7.94;100.00
18323;BME280;9287;49.456;11.064;2023-04-15T10:56:40;97235.63;;;8.14;100.00
18323;BME280;9287;49.456;11.064;2023-04-15T10:59:08;97227.84;;;8.86;100.00
18323;BME280;9287;49.456;11.064;2023-04-15T11:01:53;97230.47;;;9.90;100.00
18323;BME280;9287;49.456;11.064;2023-04-15T11:04:54;97229.03;;;10.49;100.00
18323;BME280;9287;49.456;11.064;2023-04-15T11:07:36;97232.59;;;10.00;100.00
18323;BME280;9287;49.456;11.064;2023-04-15T11:13:25;97238.00;;;9.73;100.00
18323;BME280;9287;49.456;11.064;2023-04-15T11:16:00;97241.56;;;9.55;100.00
18323;BME280;9287;49.456;11.064;2023-04-15T11:18:32;97241.72;;;9.20;100.00
18323;BME280;9287;49.456;11.064;2023-04-15T11:21:04;97246.84;;;9.02;100.00
18323;BME280;9287;49.456;11.064;2023-04-15T11:23:34;97234.31;;;8.78;100.00
18323;BME280;9287;49.456;11.064;2023-04-15T11:26:04;97244.31;;;8.55;100.00
18323;BME280;9287;49.456;11.064;2023-04-15T11:28:35;97250.88;;;8.34;100.00
18323;BME280;9287;49.456;11.064;2023-04-15T11:31:06;97246.94;;;8.32;100.00
18323;BME280;9287;49.456;11.064;2023-04-15T11:33:36;97253.00;;;8.25;100.00
18323;BME280;9287;49.456;11.064;2023-04-15T11:36:07;97256.69;;;8.17;100.00
18323;BME280;9287;49.456;11.064;2023-04-15T11:38:34;97253.38;;;8.08;100.00
18323;BME280;9287;49.456;11.064;2023-04-15T11:41:03;97268.03;;;8.03;100.00
18323;BME280;9287;49.456;11.064;2023-04-15T11:43:31;97254.34;;;8.00;100.00
18323;BME280;9287;49.456;11.064;2023-04-15T11:46:01;97259.50;;;8.05;100.00
18323;BME280;9287;49.456;11.064;2023-04-15T11:48:31;97261.53;;;8.08;100.00
18323;BME280;9287;49.456;11.064;2023-04-15T11:51:00;97263.81;;;8.06;100.00
18323;BME280;9287;49.456;11.064;2023-04-15T11:53:41;97265.13;;;8.12;100.00
18323;BME280;9287;49.456;11.064;2023-04-15T11:56:10;97260.44;;;8.28;100.00
18323;BME280;9287;49.456;11.064;2023-04-15T11:58:42;97260.09;;;8.30;100.00
18323;BME280;9287;49.456;11.064;2023-04-15T12:01:12;97265.63;;;8.33;100.00
18323;BME280;9287;49.456;11.064;2023-04-15T12:03:41;97264.75;;;8.29;100.00
18323;BME280;9287;49.456;11.064;2023-04-15T12:06:14;97268.06;;;8.38;100.00
18323;BME280;9287;49.456;11.064;2023-04-15T12:08:59;97268.94;;;8.43;100.00
18323;BME280;9287;49.456;11.064;2023-04-15T12:11:30;97269.66;;;8.40;100.00
18323;BME280;9287;49.456;11.064;2023-04-15T12:14:01;97273.94;;;8.41;100.00
18323;BME280;9287;49.456;11.064;2023-04-15T12:16:30;97276.94;;;8.35;100.00
18323;BME280;9287;49.456;11.064;2023-04-15T12:19:03;97285.72;;;8.29;100.00
18323;BME280;9287;49.456;11.064;2023-04-15T12:21:36;97287.22;;;8.26;100.00
18323;BME280;9287;49.456;11.064;2023-04-15T12:24:07;97283.34;;;8.27;100.00
18323;BME280;9287;49.456;11.064;2023-04-15T12:26:36;97285.63;;;8.25;100.00
18323;BME280;9287;49.456;11.064;2023-04-15T12:29:05;97290.19;;;8.21;100.00
18323;BME280;9287;49.456;11.064;2023-04-15T12:31:34;97296.69;;;8.32;100.00
18323;BME280;9287;49.456;11.064;2023-04-15T12:34:03;97290.63;;;8.39;100.00
18323;BME280;9287;49.456;11.064;2023-04-15T12:36:34;97299.56;;;8.40;100.00
18323;BME280;9287;49.456;11.064;2023-04-15T12:39:03;97299.31;;;8.45;100.00
18323;BME280;9287;49.456;11.064;2023-04-15T12:41:32;97308.75;;;8.51;100.00
18323;BME280;9287;49.456;11.064;2023-04-15T12:44:00;97308.94;;;8.58;100.00
18323;BME280;9287;49.456;11.064;2023-04-15T12:46:28;97312.78;;;8.57;100.00
18323;BME280;9287;49.456;11.064;2023-04-15T12:48:56;97309.63;;;8.55;100.00
18323;BME280;9287;49.456;11.064;2023-04-15T12:51:24;97318.94;;;8.54;100.00
18323;BME280;9287;49.456;11.064;2023-04-15T12:53:53;97315.50;;;8.57;100.00
18323;BME280;9287;49.456;11.064;2023-04-15T12:56:20;97317.66;;;8.67;100.00
18323;BME280;9287;49.456;11.064;2023-04-15T12:58:50;97317.97;;;8.62;100.00
18323;BME280;9287;49.456;11.064;2023-04-15T13:01:18;97320.81;;;8.69;100.00
18323;BME280;9287;49.456;11.064;2023-04-15T13:03:46;97325.44;;;8.65;100.00
18323;BME280;9287;49.456;11.064;2023-04-15T13:06:15;97325.72;;;8.79;100.00
18323;BME280;9287;49.456;11.064;2023-04-15T13:08:43;97321.25;;;8.71;100.00
18323;BME280;9287;49.456;11.064;2023-04-15T13:11:24;97326.94;;;8.82;100.00
18323;BME280;9287;49.456;11.064;2023-04-15T13:13:53;97325.16;;;8.89;100.00